Time,TemperatureF,DewpointF,PressureIn,WindDirection,WindDirectionDegrees,WindSpeedMPH,WindSpeedGustMPH,Humidity,HourlyPrecipIn,Conditions,Clouds,dailyrainin,SolarRadiationWatts/m^2,SoftwareType,DateUTC
2013-05-02 00:03:00,70.0,68.0,-100.00,SSW,199,0.0,5.0,93,0.00,,,0.86,0.000000,,2013-05-02 04:03:00,
2013-05-02 00:12:00,70.0,68.0,-100.00,SSW,199,0.0,5.0,93,0.00,,,0.86,0.000000,,2013-05-02 04:12:00,
2013-05-02 00:43:00,71.0,69.0,-100.00,East,80,1.0,4.0,95,0.00,,,0.86,0.000000,,2013-05-02 04:43:00,
2013-05-02 00:52:00,71.0,69.0,-100.00,East,80,1.0,4.0,95,0.00,,,0.86,0.000000,,2013-05-02 04:52:00,
2013-05-02 01:02:00,71.0,69.0,-100.00,East,80,1.0,4.0,95,0.00,,,0.86,0.000000,,2013-05-02 05:02:00,
2013-05-02 01:12:00,71.0,69.0,-100.00,East,80,1.0,4.0,95,0.00,,,0.86,0.000000,,2013-05-02 05:12:00,
2013-05-02 01:42:00,71.0,68.0,-100.00,ESE,117,6.0,11.0,89,0.00,,,0.86,0.000000,,2013-05-02 05:42:00,
2013-05-02 01:52:00,71.0,68.0,-100.00,ESE,117,6.0,11.0,89,0.00,,,0.86,0.000000,,2013-05-02 05:52:00,
2013-05-02 02:01:00,71.0,68.0,-100.00,ESE,117,6.0,11.0,89,0.00,,,0.86,0.000000,,2013-05-02 06:01:00,
2013-05-02 02:12:00,71.0,68.0,-100.00,ESE,117,6.0,11.0,89,0.00,,,0.86,0.000000,,2013-05-02 06:12:00,
2013-05-02 02:42:00,70.0,67.0,-100.00,ESE,113,4.0,10.0,91,0.00,,,0.86,0.000000,,2013-05-02 06:42:00,
2013-05-02 02:52:00,70.0,67.0,-100.00,ESE,113,4.0,10.0,91,0.00,,,0.86,0.000000,,2013-05-02 06:52:00,
2013-05-02 03:02:00,70.0,67.0,-100.00,ESE,113,4.0,10.0,91,0.00,,,0.86,0.000000,,2013-05-02 07:02:00,
2013-05-02 03:11:00,70.0,67.0,-100.00,ESE,113,4.0,10.0,91,0.00,,,0.86,0.000000,,2013-05-02 07:11:00,
2013-05-02 03:42:00,71.0,68.0,-100.00,SE,132,5.0,10.0,90,0.00,,,0.86,0.000000,,2013-05-02 07:42:00,
2013-05-02 03:52:00,71.0,68.0,-100.00,SE,132,5.0,10.0,90,0.00,,,0.86,0.000000,,2013-05-02 07:52:00,
2013-05-02 04:02:00,71.0,68.0,-100.00,SE,132,5.0,10.0,90,0.00,,,0.86,0.000000,,2013-05-02 08:02:00,
2013-05-02 04:11:00,71.0,68.0,-100.00,SE,132,5.0,10.0,90,0.00,,,0.86,0.000000,,2013-05-02 08:11:00,
2013-05-02 04:42:00,71.0,68.0,-100.00,SE,124,4.0,10.0,91,0.00,,,0.86,0.000000,,2013-05-02 08:42:00,
2013-05-02 04:52:00,71.0,68.0,-100.00,SE,124,4.0,10.0,91,0.00,,,0.86,0.000000,,2013-05-02 08:52:00,
2013-05-02 05:02:00,71.0,68.0,-100.00,SE,124,4.0,10.0,91,0.00,,,0.86,0.000000,,2013-05-02 09:02:00,
2013-05-02 05:12:00,71.0,68.0,-100.00,SE,124,4.0,10.0,91,0.00,,,0.86,0.000000,,2013-05-02 09:12:00,
2013-05-02 05:43:00,71.0,69.0,-100.00,ESE,114,4.0,7.0,92,0.00,,,0.86,0.000000,,2013-05-02 09:43:00,
2013-05-02 05:52:00,71.0,69.0,-100.00,ESE,114,4.0,7.0,92,0.00,,,0.86,0.000000,,2013-05-02 09:52:00,
2013-05-02 06:03:00,71.0,69.0,-100.00,ESE,114,4.0,7.0,92,0.00,,,0.86,0.000000,,2013-05-02 10:03:00,
2013-05-02 06:12:00,71.0,69.0,-100.00,ESE,114,4.0,7.0,92,0.00,,,0.86,0.000000,,2013-05-02 10:12:00,
2013-05-02 06:42:00,71.0,69.0,-100.00,East,99,3.0,8.0,93,0.00,,,0.86,0.000000,,2013-05-02 10:42:00,
2013-05-02 06:53:00,71.0,69.0,-100.00,East,99,3.0,8.0,93,0.00,,,0.86,0.000000,,2013-05-02 10:53:00,
2013-05-02 07:02:00,71.0,69.0,-100.00,East,99,3.0,8.0,93,0.00,,,0.86,0.000000,,2013-05-02 11:02:00,
2013-05-02 07:12:00,71.0,69.0,-100.00,East,99,3.0,8.0,93,0.00,,,0.86,0.000000,,2013-05-02 11:12:00,
2013-05-02 07:42:00,71.0,69.0,-100.00,East,99,4.0,8.0,93,0.00,,,0.86,2.000000,,2013-05-02 11:42:00,
2013-05-02 07:52:00,71.0,69.0,-100.00,East,99,4.0,8.0,93,0.00,,,0.86,2.000000,,2013-05-02 11:52:00,
2013-05-02 08:01:00,71.0,69.0,-100.00,East,99,4.0,8.0,93,0.00,,,0.86,2.000000,,2013-05-02 12:01:00,
2013-05-02 08:12:00,71.0,69.0,-100.00,East,99,4.0,8.0,93,0.00,,,0.86,2.000000,,2013-05-02 12:12:00,
2013-05-02 08:42:00,72.0,70.0,-100.00,ENE,66,0.0,6.0,93,0.05,,,0.91,13.000000,,2013-05-02 12:42:00,
2013-05-02 08:52:00,72.0,70.0,-100.00,ENE,66,0.0,6.0,93,0.05,,,0.91,13.000000,,2013-05-02 12:52:00,
2013-05-02 09:01:00,72.0,70.0,-100.00,ENE,66,0.0,6.0,93,0.05,,,0.91,13.000000,,2013-05-02 13:01:00,
2013-05-02 09:11:00,72.0,70.0,-100.00,ENE,66,0.0,6.0,93,0.05,,,0.91,13.000000,,2013-05-02 13:11:00,
2013-05-02 09:42:00,70.0,68.0,-100.00,South,172,2.0,10.0,93,0.07,,,0.98,14.000000,,2013-05-02 13:42:00,
2013-05-02 09:52:00,70.0,68.0,-100.00,South,172,2.0,10.0,93,0.07,,,0.98,14.000000,,2013-05-02 13:52:00,
2013-05-02 10:02:00,70.0,68.0,-100.00,South,172,2.0,10.0,93,0.07,,,0.98,14.000000,,2013-05-02 14:02:00,
2013-05-02 10:11:00,70.0,68.0,-100.00,South,172,2.0,10.0,93,0.07,,,0.98,14.000000,,2013-05-02 14:11:00,
2013-05-02 10:43:00,70.0,68.0,-100.00,SE,136,1.0,4.0,94,0.11,,,1.09,9.000000,,2013-05-02 14:43:00,
2013-05-02 10:52:00,70.0,68.0,-100.00,SE,136,1.0,4.0,94,0.11,,,1.09,9.000000,,2013-05-02 14:52:00,
2013-05-02 11:02:00,70.0,68.0,-100.00,SE,136,1.0,4.0,94,0.11,,,1.09,9.000000,,2013-05-02 15:02:00,
2013-05-02 11:12:00,70.0,68.0,-100.00,SE,136,1.0,4.0,94,0.11,,,1.09,9.000000,,2013-05-02 15:12:00,
2013-05-02 11:43:00,69.0,67.0,-100.00,ENE,77,5.0,8.0,93,0.16,,,1.25,20.000000,,2013-05-02 15:43:00,
2013-05-02 12:03:00,69.0,67.0,-100.00,ENE,77,5.0,8.0,93,0.16,,,1.25,20.000000,,2013-05-02 16:03:00,
2013-05-02 12:13:00,69.0,67.0,-100.00,ENE,77,5.0,8.0,93,0.16,,,1.25,20.000000,,2013-05-02 16:13:00,
2013-05-02 12:32:00,69.0,67.0,-100.00,ESE,111,0.0,11.0,92,0.04,,,1.28,36.000000,,2013-05-02 16:32:00,
2013-05-02 12:43:00,69.0,67.0,-100.00,ESE,111,0.0,11.0,92,0.04,,,1.28,36.000000,,2013-05-02 16:43:00,
2013-05-02 12:52:00,69.0,67.0,-100.00,ESE,111,0.0,11.0,92,0.04,,,1.28,36.000000,,2013-05-02 16:52:00,
2013-05-02 13:02:00,69.0,67.0,-100.00,ESE,111,0.0,11.0,92,0.04,,,1.28,36.000000,,2013-05-02 17:02:00,
2013-05-02 13:12:00,69.0,67.0,-100.00,ESE,111,0.0,11.0,92,0.04,,,1.28,36.000000,,2013-05-02 17:12:00,
2013-05-02 13:42:00,69.0,67.0,-100.00,South,191,0.0,5.0,94,0.05,,,0.60,20.000000,,2013-05-02 17:42:00,
2013-05-02 13:52:00,69.0,67.0,-100.00,South,191,0.0,5.0,94,0.05,,,0.60,20.000000,,2013-05-02 17:52:00,
2013-05-02 14:01:00,69.0,67.0,-100.00,South,191,0.0,5.0,94,0.05,,,0.60,20.000000,,2013-05-02 18:01:00,
2013-05-02 14:12:00,69.0,67.0,-100.00,South,191,0.0,5.0,94,0.05,,,0.60,20.000000,,2013-05-02 18:12:00,
2013-05-02 14:42:00,71.0,69.0,-100.00,SSE,165,3.0,7.0,92,0.02,,,0.50,68.000000,,2013-05-02 18:42:00,
2013-05-02 14:52:00,71.0,69.0,-100.00,SSE,165,3.0,7.0,92,0.02,,,0.50,68.000000,,2013-05-02 18:52:00,
2013-05-02 15:01:00,71.0,69.0,-100.00,SSE,165,3.0,7.0,92,0.02,,,0.50,68.000000,,2013-05-02 19:01:00,
2013-05-02 15:11:00,71.0,69.0,-100.00,SSE,165,3.0,7.0,92,0.02,,,0.50,68.000000,,2013-05-02 19:11:00,
2013-05-02 15:42:00,72.0,68.0,-100.00,ESE,120,3.0,10.0,88,0.00,,,0.50,77.000000,,2013-05-02 19:42:00,
2013-05-02 15:52:00,72.0,68.0,-100.00,ESE,120,3.0,10.0,88,0.00,,,0.50,77.000000,,2013-05-02 19:52:00,
2013-05-02 16:02:00,72.0,68.0,-100.00,ESE,120,3.0,10.0,88,0.00,,,0.50,77.000000,,2013-05-02 20:02:00,
2013-05-02 16:11:00,72.0,68.0,-100.00,ESE,120,3.0,10.0,88,0.00,,,0.50,77.000000,,2013-05-02 20:11:00,
2013-05-02 16:42:00,74.0,67.0,-100.00,ESE,116,4.0,7.0,79,0.00,,,0.50,168.000000,,2013-05-02 20:42:00,
2013-05-02 16:52:00,74.0,67.0,-100.00,ESE,116,4.0,7.0,79,0.00,,,0.50,168.000000,,2013-05-02 20:52:00,
2013-05-02 17:01:00,74.0,67.0,-100.00,ESE,116,4.0,7.0,79,0.00,,,0.50,168.000000,,2013-05-02 21:01:00,
2013-05-02 17:12:00,74.0,67.0,-100.00,ESE,116,4.0,7.0,79,0.00,,,0.50,168.000000,,2013-05-02 21:12:00,
2013-05-02 17:42:00,77.0,69.0,-100.00,ENE,70,5.0,9.0,76,0.00,,,0.50,400.000000,,2013-05-02 21:42:00,
2013-05-02 17:53:00,77.0,69.0,-100.00,ENE,70,5.0,9.0,76,0.00,,,0.50,400.000000,,2013-05-02 21:53:00,
2013-05-02 18:03:00,77.0,69.0,-100.00,ENE,70,5.0,9.0,76,0.00,,,0.50,400.000000,,2013-05-02 22:03:00,
2013-05-02 18:12:00,77.0,69.0,-100.00,ENE,70,5.0,9.0,76,0.00,,,0.50,400.000000,,2013-05-02 22:12:00,
2013-05-02 18:42:00,76.0,66.0,-100.00,ESE,119,4.0,9.0,72,0.00,,,0.50,346.000000,,2013-05-02 22:42:00,
2013-05-02 18:53:00,76.0,66.0,-100.00,ESE,119,4.0,9.0,72,0.00,,,0.50,346.000000,,2013-05-02 22:53:00,
2013-05-02 19:02:00,76.0,66.0,-100.00,ESE,119,4.0,9.0,72,0.00,,,0.50,346.000000,,2013-05-02 23:02:00,
2013-05-02 19:12:00,76.0,66.0,-100.00,ESE,119,4.0,9.0,72,0.00,,,0.50,346.000000,,2013-05-02 23:12:00,
2013-05-02 19:32:00,75.0,67.0,-100.00,East,82,4.0,8.0,76,0.00,,,0.50,139.000000,,2013-05-02 23:32:00,
2013-05-02 19:42:00,75.0,67.0,-100.00,East,82,4.0,8.0,76,0.00,,,0.50,139.000000,,2013-05-02 23:42:00,
2013-05-02 19:52:00,75.0,67.0,-100.00,East,82,4.0,8.0,76,0.00,,,0.50,139.000000,,2013-05-02 23:52:00,
2013-05-02 20:01:00,75.0,67.0,-100.00,East,82,4.0,8.0,76,0.00,,,0.50,139.000000,,2013-05-03 00:01:00,
2013-05-02 20:11:00,75.0,67.0,-100.00,East,82,4.0,8.0,76,0.00,,,0.50,139.000000,,2013-05-03 00:11:00,
2013-05-02 20:42:00,71.0,66.0,-100.00,East,90,0.0,7.0,85,0.00,,,0.50,27.000000,,2013-05-03 00:42:00,
2013-05-02 20:52:00,71.0,66.0,-100.00,East,90,0.0,7.0,85,0.00,,,0.50,27.000000,,2013-05-03 00:52:00,
2013-05-02 21:01:00,71.0,66.0,-100.00,East,90,0.0,7.0,85,0.00,,,0.50,27.000000,,2013-05-03 01:01:00,
2013-05-02 21:11:00,71.0,66.0,-100.00,East,90,0.0,7.0,85,0.00,,,0.50,27.000000,,2013-05-03 01:11:00,
2013-05-02 21:32:00,67.0,65.0,-100.00,SE,134,0.0,2.0,92,0.00,,,0.50,0.000000,,2013-05-03 01:32:00,
2013-05-02 21:42:00,67.0,65.0,-100.00,SE,134,0.0,2.0,92,0.00,,,0.50,0.000000,,2013-05-03 01:42:00,
2013-05-02 21:52:00,67.0,65.0,-100.00,SE,134,0.0,2.0,92,0.00,,,0.50,0.000000,,2013-05-03 01:52:00,
2013-05-02 22:02:00,67.0,65.0,-100.00,SE,134,0.0,2.0,92,0.00,,,0.50,0.000000,,2013-05-03 02:02:00,
2013-05-02 22:11:00,67.0,65.0,-100.00,SE,134,0.0,2.0,92,0.00,,,0.50,0.000000,,2013-05-03 02:11:00,
2013-05-02 22:32:00,69.0,67.0,-100.00,East,99,3.0,6.0,93,0.00,,,0.50,0.000000,,2013-05-03 02:32:00,
2013-05-02 22:42:00,69.0,67.0,-100.00,East,99,3.0,6.0,93,0.00,,,0.50,0.000000,,2013-05-03 02:42:00,
2013-05-02 22:52:00,69.0,67.0,-100.00,East,99,3.0,6.0,93,0.00,,,0.50,0.000000,,2013-05-03 02:52:00,
2013-05-02 23:01:00,69.0,67.0,-100.00,East,99,3.0,6.0,93,0.00,,,0.50,0.000000,,2013-05-03 03:01:00,
2013-05-02 23:11:00,69.0,67.0,-100.00,East,99,3.0,6.0,93,0.00,,,0.50,0.000000,,2013-05-03 03:11:00,
2013-05-02 23:33:00,69.0,67.0,-100.00,ESE,102,4.0,7.0,93,0.00,,,0.50,0.000000,,2013-05-03 03:33:00,
2013-05-02 23:43:00,69.0,67.0,-100.00,ESE,102,4.0,7.0,93,0.00,,,0.50,0.000000,,2013-05-03 03:43:00,
2013-05-02 23:53:00,69.0,67.0,-100.00,ESE,102,4.0,7.0,93,0.00,,,0.50,0.000000,,2013-05-03 03:53:00,